createdAt,value
2017-12-14T00:00:44.902Z,3.04
2017-12-14T00:03:12.409Z,3.09
2017-12-14T00:05:39.913Z,3.11
2017-12-14T00:08:07.426Z,3.09
2017-12-14T00:10:34.971Z,3.13
2017-12-14T00:13:02.459Z,3.14
2017-12-14T00:15:30.176Z,3.14
2017-12-14T00:17:57.684Z,3.16
2017-12-14T00:20:25.184Z,3.23
2017-12-14T00:22:52.721Z,3.21
2017-12-14T00:25:19.667Z,3.22
2017-12-14T00:27:49.474Z,3.28
2017-12-14T00:30:16.985Z,3.27
2017-12-14T00:32:44.487Z,3.32
2017-12-14T00:35:11.997Z,3.31
2017-12-14T00:37:39.510Z,3.35
2017-12-14T00:40:07.009Z,3.32
2017-12-14T00:42:34.517Z,3.35
2017-12-14T00:45:02.027Z,3.34
2017-12-14T00:47:29.547Z,3.38
2017-12-14T00:49:57.054Z,3.39
2017-12-14T00:52:24.550Z,3.40
2017-12-14T00:54:52.081Z,3.40
2017-12-14T00:57:19.591Z,3.42
2017-12-14T00:59:47.098Z,3.47
2017-12-14T01:02:14.610Z,3.46
2017-12-14T01:04:42.117Z,3.46
2017-12-14T01:07:09.621Z,3.50
2017-12-14T01:09:37.130Z,3.48
2017-12-14T01:12:04.639Z,3.54
2017-12-14T01:14:32.150Z,3.48
2017-12-14T01:16:59.647Z,3.47
2017-12-14T01:19:27.161Z,3.48
2017-12-14T01:21:54.673Z,3.43
2017-12-14T01:24:22.182Z,3.44
2017-12-14T01:26:49.690Z,3.40
2017-12-14T01:29:17.189Z,3.38
2017-12-14T01:31:44.698Z,3.36
2017-12-14T01:34:12.206Z,3.29
2017-12-14T01:36:39.712Z,3.25
2017-12-14T01:39:07.242Z,3.11
2017-12-14T01:41:34.744Z,3.15
2017-12-14T01:44:02.267Z,3.09
2017-12-14T01:46:29.774Z,3.02
2017-12-14T01:48:57.286Z,2.96
2017-12-14T01:51:24.792Z,2.73
2017-12-14T01:53:52.302Z,2.76
2017-12-14T01:56:19.810Z,2.72
2017-12-14T01:58:47.314Z,2.62
2017-12-14T02:01:14.815Z,2.62
2017-12-14T02:03:42.329Z,2.60
2017-12-14T02:06:09.835Z,2.71
2017-12-14T02:08:37.349Z,2.63
2017-12-14T02:11:04.854Z,2.69
2017-12-14T02:13:32.390Z,2.73
2017-12-14T02:15:59.896Z,2.81
2017-12-14T02:18:27.398Z,2.94
2017-12-14T02:20:54.919Z,2.99
2017-12-14T02:23:22.445Z,3.08
2017-12-14T02:25:49.946Z,3.15
2017-12-14T02:28:17.479Z,3.23
2017-12-14T02:30:44.996Z,3.27
2017-12-14T02:33:12.530Z,3.33
2017-12-14T02:35:40.037Z,3.37
2017-12-14T02:38:07.553Z,3.41
2017-12-14T02:40:35.058Z,3.45
2017-12-14T02:43:02.572Z,3.45
2017-12-14T02:45:30.074Z,3.49
2017-12-14T02:47:57.581Z,3.50
2017-12-14T02:50:25.095Z,3.54
2017-12-14T02:52:52.616Z,3.57
2017-12-14T02:55:20.117Z,3.62
2017-12-14T02:57:47.628Z,3.63
2017-12-14T03:00:15.163Z,3.67
2017-12-14T03:02:42.670Z,3.69
2017-12-14T04:27:07.128Z,4.79
2017-12-14T04:29:34.634Z,4.79
2017-12-14T04:32:02.136Z,4.86
2017-12-14T04:34:29.640Z,4.89
2017-12-14T04:36:57.142Z,4.87
2017-12-14T04:39:24.667Z,4.84
2017-12-14T04:41:52.169Z,4.79
2017-12-14T04:44:19.677Z,4.76
2017-12-14T04:46:47.187Z,4.77
2017-12-14T04:49:14.700Z,4.74
2017-12-14T04:51:42.220Z,4.73
2017-12-14T04:54:09.725Z,4.74
2017-12-14T04:56:37.239Z,4.73
2017-12-14T04:59:04.744Z,4.74
2017-12-14T05:01:32.256Z,4.75
2017-12-14T05:03:59.760Z,4.77
2017-12-14T05:06:27.265Z,4.83
2017-12-14T05:08:54.775Z,4.83
2017-12-14T05:11:22.283Z,4.87
2017-12-14T05:13:49.792Z,4.87
2017-12-14T05:16:17.319Z,4.87
2017-12-14T05:18:44.829Z,4.87
2017-12-14T05:21:18.128Z,4.92
2017-12-14T05:23:45.629Z,4.92
2017-12-14T05:26:13.139Z,4.93
2017-12-14T05:28:40.637Z,4.94
2017-12-14T05:31:08.142Z,4.98
2017-12-14T05:33:35.653Z,4.99
2017-12-14T05:36:03.161Z,5.01
2017-12-14T05:38:30.672Z,5.00
2017-12-14T05:40:58.183Z,5.00
2017-12-14T05:43:25.691Z,4.98
2017-12-14T05:45:53.199Z,5.01
2017-12-14T05:48:20.713Z,4.99
2017-12-14T05:50:48.226Z,5.01
2017-12-14T05:53:15.733Z,5.02
2017-12-14T05:55:43.254Z,5.04
2017-12-14T05:58:10.801Z,5.03
2017-12-14T06:00:38.305Z,5.02
2017-12-14T06:03:05.825Z,5.01
2017-12-14T06:05:33.333Z,4.99
2017-12-14T06:08:00.848Z,4.91
2017-12-14T06:10:28.351Z,4.91
2017-12-14T06:12:55.849Z,4.89
2017-12-14T06:15:23.357Z,4.87
2017-12-14T06:17:50.864Z,4.85
2017-12-14T06:20:18.373Z,4.81
2017-12-14T06:22:45.882Z,4.79
2017-12-14T06:25:13.393Z,4.77
2017-12-14T06:27:40.900Z,4.76
2017-12-14T06:30:08.400Z,4.69
2017-12-14T06:32:35.908Z,4.70
2017-12-14T06:35:03.419Z,4.68
2017-12-14T06:37:30.937Z,4.65
2017-12-14T06:39:58.457Z,4.64
2017-12-14T06:42:25.958Z,4.62
2017-12-14T06:44:53.464Z,4.61
2017-12-14T06:47:20.966Z,4.57
2017-12-14T06:49:48.471Z,4.51
2017-12-14T06:52:15.990Z,4.49
2017-12-14T06:54:43.502Z,4.44
2017-12-14T06:57:11.017Z,4.43
2017-12-14T06:59:38.529Z,4.44
2017-12-14T07:02:06.038Z,4.44
2017-12-14T07:04:33.541Z,4.44
2017-12-14T07:07:01.038Z,4.42
2017-12-14T07:09:28.546Z,4.40
2017-12-14T07:11:56.054Z,4.41
2017-12-14T07:14:23.556Z,4.42
2017-12-14T07:16:51.075Z,4.38
2017-12-14T07:19:18.581Z,4.38
2017-12-14T07:21:46.089Z,4.40
2017-12-14T07:24:13.589Z,4.40
2017-12-14T07:26:41.102Z,4.41
2017-12-14T07:29:08.638Z,4.40
2017-12-14T07:31:36.133Z,4.39
2017-12-14T07:34:03.633Z,4.42
2017-12-14T07:36:31.142Z,4.39
2017-12-14T07:38:58.647Z,4.41
2017-12-14T07:41:26.140Z,4.44
2017-12-14T07:44:05.414Z,4.45
2017-12-14T07:46:34.717Z,4.48
2017-12-14T07:49:14.143Z,4.46
2017-12-14T07:51:41.659Z,4.50
2017-12-14T07:54:09.171Z,4.52
2017-12-14T07:56:36.672Z,4.51
2017-12-14T07:59:04.875Z,4.52
2017-12-14T08:01:32.377Z,4.54
2017-12-14T08:03:59.872Z,4.54
2017-12-14T08:06:28.274Z,4.52
2017-12-14T08:08:55.782Z,4.57
2017-12-14T08:11:23.293Z,4.56
2017-12-14T08:13:50.814Z,4.57
2017-12-14T08:16:18.318Z,4.55
2017-12-14T08:18:45.822Z,4.54
2017-12-14T08:21:13.337Z,4.54
2017-12-14T08:23:40.847Z,4.59
2017-12-14T08:26:08.366Z,4.61
2017-12-14T08:28:36.329Z,4.62
2017-12-14T08:31:03.840Z,4.63
2017-12-14T08:33:31.352Z,4.58
2017-12-14T08:35:58.858Z,4.63
2017-12-14T08:38:26.365Z,4.65
2017-12-14T08:40:53.883Z,4.67
2017-12-14T08:43:21.394Z,4.66
2017-12-14T08:45:48.905Z,4.67
2017-12-14T08:48:16.417Z,4.72
2017-12-14T08:50:43.923Z,4.77
2017-12-14T08:53:11.428Z,4.71
2017-12-14T08:55:38.944Z,4.69
2017-12-14T08:58:06.469Z,4.71
2017-12-14T09:00:33.982Z,4.65
2017-12-14T09:03:01.497Z,4.69
2017-12-14T09:05:29.009Z,4.74
2017-12-14T09:07:56.588Z,4.78
2017-12-14T09:10:24.061Z,4.77
2017-12-14T09:12:51.569Z,4.79
2017-12-14T09:15:19.078Z,4.81
2017-12-14T09:17:46.614Z,4.87
2017-12-14T09:20:14.122Z,4.82
2017-12-14T09:22:41.634Z,4.82
2017-12-14T09:25:09.145Z,4.83
2017-12-14T09:27:36.654Z,4.86
2017-12-14T09:30:04.155Z,4.91
2017-12-14T09:32:31.666Z,4.96
2017-12-14T09:34:59.186Z,4.95
2017-12-14T09:37:26.699Z,4.98
2017-12-14T09:39:54.206Z,5.03
2017-12-14T09:42:21.714Z,5.03
2017-12-14T09:44:49.245Z,5.03
2017-12-14T09:47:16.753Z,5.07
2017-12-14T09:49:44.253Z,5.15
2017-12-14T09:52:11.769Z,5.20
2017-12-14T09:54:39.266Z,5.24
2017-12-14T09:57:06.770Z,5.32
2017-12-14T09:59:34.286Z,5.29
2017-12-14T10:02:01.815Z,5.35
2017-12-14T10:04:29.325Z,5.33
2017-12-14T10:06:56.833Z,5.40
2017-12-14T10:09:24.345Z,5.40
2017-12-14T10:11:51.852Z,5.38
2017-12-14T10:14:19.390Z,5.41
2017-12-14T10:16:46.902Z,5.45
2017-12-14T10:19:14.408Z,5.45
2017-12-14T10:21:41.916Z,5.41
2017-12-14T10:24:10.415Z,5.42
2017-12-14T10:26:37.912Z,5.59
2017-12-14T10:29:05.433Z,5.63
2017-12-14T10:31:32.946Z,5.57
2017-12-14T10:34:00.463Z,5.65
2017-12-14T10:36:27.973Z,5.59
2017-12-14T10:38:55.488Z,5.60
2017-12-14T10:41:22.995Z,5.65
2017-12-14T10:43:50.502Z,5.61
2017-12-14T10:46:18.011Z,5.65
2017-12-14T10:48:45.575Z,5.74
2017-12-14T10:51:13.058Z,5.65
2017-12-14T10:53:40.560Z,5.85
2017-12-14T10:56:08.076Z,5.84
2017-12-14T10:58:35.580Z,6.04
2017-12-14T11:01:08.648Z,6.12
2017-12-14T11:03:36.151Z,6.18
2017-12-14T11:06:03.667Z,6.39
2017-12-14T11:08:31.178Z,6.27
2017-12-14T11:10:58.690Z,6.25
2017-12-14T11:13:26.255Z,6.31
2017-12-14T11:15:53.747Z,6.30
2017-12-14T11:18:21.256Z,6.31
2017-12-14T11:20:48.761Z,6.42
2017-12-14T11:23:16.266Z,6.34
2017-12-14T11:25:43.783Z,6.21
2017-12-14T11:28:11.293Z,6.15
2017-12-14T11:30:38.798Z,6.05
2017-12-14T11:33:06.321Z,6.00
2017-12-14T11:35:33.880Z,6.24
2017-12-14T11:38:01.411Z,6.06
2017-12-14T11:40:28.924Z,5.99
2017-12-14T11:42:56.437Z,5.84
2017-12-14T11:45:23.946Z,6.05
2017-12-14T11:47:51.461Z,5.88
2017-12-14T11:50:18.968Z,5.90
2017-12-14T11:52:46.480Z,5.84
2017-12-14T11:55:13.978Z,5.94
2017-12-14T11:57:41.498Z,5.97
2017-12-14T12:00:09.007Z,5.84
2017-12-14T12:02:36.525Z,5.85
2017-12-14T12:05:04.042Z,6.03
2017-12-14T12:07:32.294Z,5.85
2017-12-14T12:09:59.803Z,5.86
2017-12-14T12:12:27.309Z,5.85
2017-12-14T12:14:54.814Z,5.94
2017-12-14T12:17:22.340Z,6.04
2017-12-14T12:19:49.852Z,5.83
2017-12-14T12:22:17.353Z,5.82
2017-12-14T12:24:44.865Z,5.78
2017-12-14T12:27:12.374Z,5.70
2017-12-14T12:29:39.894Z,5.67
2017-12-14T12:32:07.406Z,5.60
2017-12-14T12:34:34.919Z,5.41
2017-12-14T12:37:02.732Z,5.37
2017-12-14T12:39:30.236Z,5.33
2017-12-14T12:41:57.756Z,5.30
2017-12-14T12:44:25.267Z,5.19
2017-12-14T12:46:52.781Z,5.22
2017-12-14T12:49:20.285Z,5.20
2017-12-14T12:51:47.789Z,5.16
2017-12-14T12:54:15.296Z,5.23
2017-12-14T12:56:42.821Z,5.12
2017-12-14T12:59:10.338Z,5.15
2017-12-14T13:01:37.844Z,5.20
2017-12-14T13:04:05.357Z,5.13
2017-12-14T13:06:32.885Z,5.10
2017-12-14T13:09:00.395Z,5.05
2017-12-14T13:11:27.905Z,5.11
2017-12-14T13:13:55.438Z,5.02
2017-12-14T13:16:22.946Z,5.02
2017-12-14T13:18:50.451Z,5.00
2017-12-14T13:21:17.951Z,5.03
2017-12-14T13:23:45.455Z,5.01
2017-12-14T13:26:12.962Z,5.09
2017-12-14T13:28:40.485Z,5.02
2017-12-14T13:31:07.986Z,5.08
2017-12-14T13:33:35.503Z,5.09
2017-12-14T13:36:03.015Z,5.01
2017-12-14T13:38:30.625Z,5.04
2017-12-14T13:40:58.135Z,5.05
2017-12-14T13:43:25.649Z,5.08
2017-12-14T13:45:54.078Z,5.12
2017-12-14T13:48:21.582Z,5.22
2017-12-14T13:50:49.091Z,5.16
2017-12-14T13:53:16.597Z,5.14
2017-12-14T13:55:44.911Z,5.07
2017-12-14T13:58:12.441Z,5.00
2017-12-14T14:00:39.951Z,4.99
2017-12-14T14:03:07.463Z,5.01
2017-12-14T14:05:34.975Z,4.90
2017-12-14T14:08:02.482Z,4.84
2017-12-14T14:10:29.990Z,4.81
2017-12-14T14:12:57.499Z,4.85
2017-12-14T14:15:25.015Z,4.87
2017-12-14T14:17:52.534Z,4.89
2017-12-14T14:20:20.046Z,4.94
2017-12-14T14:22:47.551Z,4.87
2017-12-14T14:25:15.086Z,4.95
2017-12-14T14:27:42.603Z,4.95
2017-12-14T14:30:10.131Z,4.93
2017-12-14T14:32:37.642Z,4.96
2017-12-14T14:35:05.157Z,4.94
2017-12-14T14:37:32.666Z,4.93
2017-12-14T14:40:00.163Z,4.89
2017-12-14T14:42:27.677Z,4.93
2017-12-14T14:44:55.188Z,4.89
2017-12-14T14:47:22.697Z,4.85
2017-12-14T14:49:50.203Z,4.84
2017-12-14T14:52:17.709Z,4.82
2017-12-14T14:54:45.217Z,4.86
2017-12-14T14:57:12.730Z,4.81
2017-12-14T14:59:40.245Z,4.83
2017-12-14T15:02:07.757Z,4.84
2017-12-14T15:04:35.272Z,4.86
2017-12-14T15:07:02.803Z,4.87
2017-12-14T15:09:30.309Z,4.85
2017-12-14T15:11:57.818Z,4.85
2017-12-14T15:14:25.331Z,4.84
2017-12-14T15:16:52.866Z,4.83
2017-12-14T15:19:20.379Z,4.85
2017-12-14T15:21:47.899Z,4.90
2017-12-14T15:24:15.410Z,4.82
2017-12-14T15:26:42.920Z,4.81
2017-12-14T15:29:10.425Z,4.76
2017-12-14T15:31:37.945Z,4.78
2017-12-14T16:56:02.405Z,3.64
2017-12-14T16:58:29.911Z,3.44
2017-12-14T17:00:57.414Z,3.46
2017-12-14T17:03:24.922Z,3.42
2017-12-14T17:05:52.426Z,3.47
2017-12-14T17:08:19.926Z,3.49
2017-12-14T17:10:47.442Z,3.50
2017-12-14T17:13:14.945Z,3.51
2017-12-14T17:15:42.450Z,3.48
2017-12-14T17:18:09.957Z,3.52
2017-12-14T17:20:37.462Z,3.45
2017-12-14T17:23:04.999Z,3.50
2017-12-14T17:25:32.515Z,3.54
2017-12-14T17:28:00.014Z,3.50
2017-12-14T17:30:27.520Z,3.47
2017-12-14T17:32:55.029Z,3.39
2017-12-14T17:35:22.530Z,3.53
2017-12-14T17:37:50.035Z,3.45
2017-12-14T17:40:17.551Z,3.55
2017-12-14T17:42:45.062Z,3.57
2017-12-14T17:45:12.606Z,3.60
2017-12-14T17:47:40.113Z,3.56
2017-12-14T17:50:07.620Z,3.54
2017-12-14T17:52:35.126Z,3.63
2017-12-14T17:55:02.625Z,3.62
2017-12-14T17:57:30.139Z,3.67
2017-12-14T17:59:57.677Z,3.70
2017-12-14T18:02:25.182Z,3.74
2017-12-14T18:04:52.697Z,3.73
2017-12-14T18:07:20.197Z,3.68
2017-12-14T18:09:47.710Z,3.74
2017-12-14T18:12:15.214Z,3.73
2017-12-14T18:14:42.725Z,3.77
2017-12-14T18:17:10.231Z,3.65
2017-12-14T18:19:37.742Z,3.73
2017-12-14T18:22:05.249Z,3.71
2017-12-14T18:24:32.771Z,3.75
2017-12-14T18:27:00.283Z,3.78
2017-12-14T18:29:27.790Z,3.76
2017-12-14T18:31:55.293Z,3.71
2017-12-14T18:34:22.798Z,3.75
2017-12-14T18:36:50.322Z,3.71
2017-12-14T18:39:17.830Z,3.63
2017-12-14T18:41:45.343Z,3.66
2017-12-14T18:44:12.845Z,3.56
2017-12-14T18:46:40.393Z,3.53
2017-12-14T18:49:07.907Z,3.47
2017-12-14T18:51:35.417Z,3.43
2017-12-14T18:54:02.924Z,3.45
2017-12-14T18:56:30.428Z,3.43
2017-12-14T18:58:57.953Z,3.40
2017-12-14T19:01:25.461Z,3.45
2017-12-14T19:03:52.968Z,3.53
2017-12-14T19:06:20.477Z,3.50
2017-12-14T19:08:47.990Z,3.53
2017-12-14T19:11:15.499Z,3.52
2017-12-14T19:13:43.019Z,3.58
2017-12-14T19:16:10.538Z,3.58
2017-12-14T19:18:38.056Z,3.63
2017-12-14T19:21:05.565Z,3.64
2017-12-14T19:23:33.075Z,3.64
2017-12-14T19:26:00.581Z,3.67
2017-12-14T19:28:28.098Z,3.66
2017-12-14T19:30:55.604Z,3.64
2017-12-14T19:33:23.118Z,3.67
2017-12-14T19:35:50.624Z,3.67
2017-12-14T19:38:18.134Z,3.68
2017-12-14T19:40:45.650Z,3.67
2017-12-14T19:43:13.185Z,3.66
2017-12-14T19:45:40.705Z,3.67
2017-12-14T19:48:08.353Z,3.74
2017-12-14T19:50:35.878Z,3.69
2017-12-14T19:53:03.381Z,3.70
2017-12-14T19:55:30.890Z,3.66
2017-12-14T19:57:58.403Z,3.67
2017-12-14T20:00:25.909Z,3.64
2017-12-14T20:02:53.409Z,3.65
2017-12-14T20:05:20.919Z,3.62
2017-12-14T20:07:48.434Z,3.66
2017-12-14T20:10:15.943Z,3.65
2017-12-14T20:12:43.462Z,3.65
2017-12-14T20:15:10.985Z,3.59
2017-12-14T20:17:38.493Z,3.59
2017-12-14T20:20:06.001Z,3.59
2017-12-14T20:22:33.503Z,3.55
2017-12-14T20:25:01.182Z,3.53
2017-12-14T20:27:28.751Z,3.52
2017-12-14T20:29:56.263Z,3.50
2017-12-14T20:32:23.780Z,3.47
2017-12-14T20:34:51.294Z,3.54
2017-12-14T20:37:18.806Z,3.60
2017-12-14T20:39:46.341Z,3.64
2017-12-14T20:42:13.858Z,3.64
2017-12-14T20:44:41.379Z,3.65
2017-12-14T20:47:08.893Z,3.61
2017-12-14T20:49:36.407Z,3.59
2017-12-14T20:52:03.905Z,3.67
2017-12-14T20:54:31.526Z,3.66
2017-12-14T20:56:59.073Z,3.57
2017-12-14T20:59:26.604Z,3.61
2017-12-14T21:01:54.128Z,3.57
2017-12-14T21:04:21.673Z,3.61
2017-12-14T21:06:49.201Z,3.63
2017-12-14T21:09:16.731Z,3.62
2017-12-14T21:11:44.240Z,3.54
2017-12-14T21:14:11.760Z,3.64
2017-12-14T21:16:39.267Z,3.64
2017-12-14T21:19:06.776Z,3.64
2017-12-14T21:21:34.291Z,3.69
2017-12-14T21:24:01.845Z,3.68
2017-12-14T21:26:29.349Z,3.64
2017-12-14T21:28:56.860Z,3.71
2017-12-14T21:31:24.371Z,3.67
2017-12-14T21:33:51.891Z,3.67
2017-12-14T21:36:19.430Z,3.70
2017-12-14T21:38:46.939Z,3.70
2017-12-14T21:41:14.448Z,3.74
2017-12-14T21:43:42.162Z,3.69
2017-12-14T21:46:09.692Z,3.74
2017-12-14T21:48:37.218Z,3.69
2017-12-14T21:51:04.731Z,3.71
2017-12-14T21:53:32.750Z,3.75
2017-12-14T21:56:00.271Z,3.75
2017-12-14T21:58:27.779Z,3.75
2017-12-14T22:00:55.278Z,3.79
2017-12-14T22:03:22.782Z,3.78
2017-12-14T22:05:50.307Z,3.79
2017-12-14T22:08:17.817Z,3.83
2017-12-14T22:10:45.326Z,3.88
2017-12-14T22:13:13.623Z,3.88
2017-12-14T22:15:41.137Z,3.85
2017-12-14T22:18:08.746Z,3.89
2017-12-14T22:20:36.862Z,3.89
2017-12-14T22:23:05.377Z,3.94
2017-12-14T22:25:32.901Z,3.92
2017-12-14T22:28:00.417Z,3.92
2017-12-14T22:30:27.946Z,3.94
2017-12-14T22:32:55.449Z,3.91
2017-12-14T22:35:22.959Z,3.93
2017-12-14T22:37:50.467Z,3.92
2017-12-14T22:40:17.991Z,3.97
2017-12-14T22:42:45.500Z,3.98
2017-12-14T22:45:12.997Z,3.94
2017-12-14T22:47:40.519Z,3.94
2017-12-14T22:50:08.026Z,3.93
2017-12-14T22:52:35.526Z,3.94
2017-12-14T22:55:03.036Z,3.92
2017-12-14T22:57:30.550Z,3.92
2017-12-14T22:59:58.092Z,3.99
2017-12-14T23:02:25.600Z,3.94
2017-12-14T23:04:53.115Z,3.93
2017-12-14T23:07:20.642Z,3.96
2017-12-14T23:09:48.146Z,3.96
2017-12-14T23:12:15.658Z,3.94
2017-12-14T23:14:43.168Z,3.97
2017-12-14T23:17:10.666Z,3.97
2017-12-14T23:19:38.177Z,3.98
2017-12-14T23:22:05.684Z,3.94
2017-12-14T23:24:33.210Z,3.93
2017-12-14T23:27:00.718Z,3.88
2017-12-14T23:29:28.236Z,3.87
2017-12-14T23:31:55.743Z,3.88
2017-12-14T23:34:23.249Z,3.86
2017-12-14T23:36:50.747Z,3.86
2017-12-14T23:39:18.254Z,3.87
2017-12-14T23:41:45.757Z,3.86
2017-12-14T23:44:13.258Z,3.88
2017-12-14T23:46:40.780Z,3.90
2017-12-14T23:49:08.287Z,3.86
2017-12-14T23:51:35.788Z,3.87
2017-12-14T23:54:03.324Z,3.88
2017-12-14T23:56:30.850Z,3.85
2017-12-14T23:58:58.367Z,3.81
